sensor_id;sensor_type;location;lat;lon;timestamp;P1;durP1;ratioP1;P2;durP2;ratioP2
40284;SDS011;25997;50.214;19.354;2023-03-04T00:01:16;57.40;;;39.33;;
40284;SDS011;25997;50.214;19.354;2023-03-04T00:04:20;57.42;;;40.70;;
40284;SDS011;25997;50.214;19.354;2023-03-04T00:07:22;50.25;;;36.13;;
40284;SDS011;25997;50.214;19.354;2023-03-04T00:10:25;53.45;;;40.17;;
40284;SDS011;25997;50.214;19.354;2023-03-04T00:13:27;52.05;;;36.05;;
40284;SDS011;25997;50.214;19.354;2023-03-04T00:16:30;50.90;;;35.97;;
40284;SDS011;25997;50.214;19.354;2023-03-04T00:19:34;55.85;;;38.75;;
40284;SDS011;25997;50.214;19.354;2023-03-04T00:22:37;51.70;;;40.10;;
40284;SDS011;25997;50.214;19.354;2023-03-04T00:25:39;55.22;;;38.53;;
40284;SDS011;25997;50.214;19.354;2023-03-04T00:28:42;53.22;;;39.10;;
40284;SDS011;25997;50.214;19.354;2023-03-04T00:31:45;60.08;;;41.45;;
40284;SDS011;25997;50.214;19.354;2023-03-04T00:34:49;62.00;;;42.95;;
40284;SDS011;25997;50.214;19.354;2023-03-04T00:37:51;64.13;;;41.95;;
40284;SDS011;25997;50.214;19.354;2023-03-04T00:40:54;59.60;;;41.90;;
40284;SDS011;25997;50.214;19.354;2023-03-04T00:43:56;61.72;;;43.50;;
40284;SDS011;25997;50.214;19.354;2023-03-04T00:46:59;61.35;;;43.20;;
40284;SDS011;25997;50.214;19.354;2023-03-04T00:50:03;57.83;;;41.53;;
40284;SDS011;25997;50.214;19.354;2023-03-04T00:53:06;52.90;;;38.95;;
40284;SDS011;25997;50.214;19.354;2023-03-04T00:56:09;52.05;;;35.42;;
40284;SDS011;25997;50.214;19.354;2023-03-04T00:59:11;47.25;;;34.65;;
40284;SDS011;25997;50.214;19.354;2023-03-04T01:02:14;52.13;;;35.25;;
40284;SDS011;25997;50.214;19.354;2023-03-04T01:05:18;46.83;;;35.58;;
40284;SDS011;25997;50.214;19.354;2023-03-04T01:08:20;51.25;;;35.95;;
40284;SDS011;25997;50.214;19.354;2023-03-04T01:11:23;45.28;;;33.17;;
40284;SDS011;25997;50.214;19.354;2023-03-04T01:14:25;47.22;;;32.03;;
40284;SDS011;25997;50.214;19.354;2023-03-04T01:17:28;60.85;;;42.53;;
40284;SDS011;25997;50.214;19.354;2023-03-04T01:20:32;61.17;;;42.15;;
40284;SDS011;25997;50.214;19.354;2023-03-04T01:23:36;64.43;;;43.42;;
40284;SDS011;25997;50.214;19.354;2023-03-04T01:26:38;65.25;;;41.53;;
40284;SDS011;25997;50.214;19.354;2023-03-04T01:29:41;66.43;;;42.00;;
40284;SDS011;25997;50.214;19.354;2023-03-04T01:32:43;59.75;;;40.45;;
40284;SDS011;25997;50.214;19.354;2023-03-04T01:35:47;64.88;;;42.88;;
40284;SDS011;25997;50.214;19.354;2023-03-04T01:38:50;67.90;;;40.47;;
40284;SDS011;25997;50.214;19.354;2023-03-04T01:41:52;62.58;;;45.08;;
40284;SDS011;25997;50.214;19.354;2023-03-04T01:44:55;62.35;;;42.20;;
40284;SDS011;25997;50.214;19.354;2023-03-04T01:47:57;68.13;;;47.95;;
40284;SDS011;25997;50.214;19.354;2023-03-04T01:51:01;65.00;;;38.15;;
40284;SDS011;25997;50.214;19.354;2023-03-04T01:54:05;63.42;;;40.50;;
40284;SDS011;25997;50.214;19.354;2023-03-04T01:57:12;64.40;;;44.13;;
40284;SDS011;25997;50.214;19.354;2023-03-04T02:00:22;66.88;;;42.65;;
40284;SDS011;25997;50.214;19.354;2023-03-04T02:03:26;77.35;;;47.80;;
40284;SDS011;25997;50.214;19.354;2023-03-04T02:06:30;64.07;;;43.42;;
40284;SDS011;25997;50.214;19.354;2023-03-04T02:09:33;64.47;;;40.50;;
40284;SDS011;25997;50.214;19.354;2023-03-04T02:12:37;63.95;;;44.00;;
40284;SDS011;25997;50.214;19.354;2023-03-04T02:15:39;63.47;;;41.00;;
40284;SDS011;25997;50.214;19.354;2023-03-04T02:18:43;61.88;;;41.10;;
40284;SDS011;25997;50.214;19.354;2023-03-04T02:21:47;59.42;;;42.97;;
40284;SDS011;25997;50.214;19.354;2023-03-04T02:24:51;64.05;;;41.95;;
40284;SDS011;25997;50.214;19.354;2023-03-04T02:28:00;69.43;;;41.42;;
40284;SDS011;25997;50.214;19.354;2023-03-04T02:31:03;56.13;;;41.40;;
40284;SDS011;25997;50.214;19.354;2023-03-04T02:34:06;59.28;;;42.53;;
40284;SDS011;25997;50.214;19.354;2023-03-04T02:37:13;52.22;;;36.88;;
40284;SDS011;25997;50.214;19.354;2023-03-04T02:40:20;63.60;;;45.67;;
40284;SDS011;25997;50.214;19.354;2023-03-04T02:43:26;55.33;;;38.58;;
40284;SDS011;25997;50.214;19.354;2023-03-04T02:46:28;43.50;;;29.80;;
40284;SDS011;25997;50.214;19.354;2023-03-04T02:49:31;41.55;;;31.10;;
40284;SDS011;25997;50.214;19.354;2023-03-04T02:52:35;41.85;;;29.67;;
40284;SDS011;25997;50.214;19.354;2023-03-04T02:55:38;40.28;;;27.98;;
40284;SDS011;25997;50.214;19.354;2023-03-04T02:58:44;40.65;;;28.05;;
40284;SDS011;25997;50.214;19.354;2023-03-04T03:01:47;42.25;;;28.88;;
40284;SDS011;25997;50.214;19.354;2023-03-04T03:04:49;48.33;;;29.83;;
40284;SDS011;25997;50.214;19.354;2023-03-04T03:07:53;39.45;;;26.63;;
40284;SDS011;25997;50.214;19.354;2023-03-04T03:10:56;46.30;;;29.25;;
40284;SDS011;25997;50.214;19.354;2023-03-04T03:14:02;46.92;;;29.83;;
40284;SDS011;25997;50.214;19.354;2023-03-04T03:17:05;45.58;;;31.00;;
40284;SDS011;25997;50.214;19.354;2023-03-04T03:20:07;51.03;;;30.23;;
40284;SDS011;25997;50.214;19.354;2023-03-04T03:23:12;44.08;;;28.73;;
40284;SDS011;25997;50.214;19.354;2023-03-04T03:26:14;52.38;;;33.30;;
40284;SDS011;25997;50.214;19.354;2023-03-04T03:29:18;52.13;;;29.02;;
40284;SDS011;25997;50.214;19.354;2023-03-04T03:32:21;44.97;;;28.80;;
40284;SDS011;25997;50.214;19.354;2023-03-04T03:35:25;41.58;;;26.52;;
40284;SDS011;25997;50.214;19.354;2023-03-04T03:38:27;48.55;;;32.17;;
40284;SDS011;25997;50.214;19.354;2023-03-04T03:41:30;48.08;;;30.38;;
40284;SDS011;25997;50.214;19.354;2023-03-04T03:44:34;47.60;;;29.02;;
40284;SDS011;25997;50.214;19.354;2023-03-04T03:47:36;42.15;;;30.25;;
40284;SDS011;25997;50.214;19.354;2023-03-04T03:50:39;43.72;;;29.95;;
40284;SDS011;25997;50.214;19.354;2023-03-04T03:53:41;45.83;;;33.65;;
40284;SDS011;25997;50.214;19.354;2023-03-04T03:56:44;41.47;;;28.35;;
40284;SDS011;25997;50.214;19.354;2023-03-04T03:59:48;46.17;;;31.30;;
40284;SDS011;25997;50.214;19.354;2023-03-04T04:02:50;49.22;;;34.40;;
40284;SDS011;25997;50.214;19.354;2023-03-04T04:05:54;48.45;;;31.05;;
40284;SDS011;25997;50.214;19.354;2023-03-04T04:08:56;46.33;;;30.73;;
40284;SDS011;25997;50.214;19.354;2023-03-04T04:11:59;50.58;;;29.58;;
40284;SDS011;25997;50.214;19.354;2023-03-04T04:15:03;55.70;;;31.38;;
40284;SDS011;25997;50.214;19.354;2023-03-04T04:18:06;50.67;;;31.77;;
40284;SDS011;25997;50.214;19.354;2023-03-04T04:21:09;56.05;;;32.75;;
40284;SDS011;25997;50.214;19.354;2023-03-04T04:24:11;61.92;;;34.15;;
40284;SDS011;25997;50.214;19.354;2023-03-04T04:27:14;53.05;;;33.17;;
40284;SDS011;25997;50.214;19.354;2023-03-04T04:30:18;59.65;;;38.20;;
40284;SDS011;25997;50.214;19.354;2023-03-04T04:33:21;57.35;;;33.25;;
40284;SDS011;25997;50.214;19.354;2023-03-04T04:36:23;60.13;;;39.42;;
40284;SDS011;25997;50.214;19.354;2023-03-04T04:39:26;58.05;;;39.53;;
40284;SDS011;25997;50.214;19.354;2023-03-04T04:42:28;48.33;;;35.90;;
40284;SDS011;25997;50.214;19.354;2023-03-04T04:45:32;57.42;;;34.50;;
40284;SDS011;25997;50.214;19.354;2023-03-04T04:48:35;53.30;;;35.40;;
40284;SDS011;25997;50.214;19.354;2023-03-04T04:51:37;60.20;;;41.38;;
40284;SDS011;25997;50.214;19.354;2023-03-04T04:54:40;55.78;;;38.00;;
40284;SDS011;25997;50.214;19.354;2023-03-04T04:57:43;62.00;;;38.58;;
40284;SDS011;25997;50.214;19.354;2023-03-04T05:00:47;59.58;;;39.85;;
40284;SDS011;25997;50.214;19.354;2023-03-04T05:03:49;62.20;;;40.55;;
40284;SDS011;25997;50.214;19.354;2023-03-04T05:06:52;61.20;;;37.63;;
40284;SDS011;25997;50.214;19.354;2023-03-04T05:09:55;59.13;;;36.40;;
40284;SDS011;25997;50.214;19.354;2023-03-04T05:12:57;58.47;;;40.70;;
40284;SDS011;25997;50.214;19.354;2023-03-04T05:16:01;64.03;;;43.00;;
40284;SDS011;25997;50.214;19.354;2023-03-04T05:19:05;61.55;;;39.55;;
40284;SDS011;25997;50.214;19.354;2023-03-04T05:22:07;64.45;;;43.17;;
40284;SDS011;25997;50.214;19.354;2023-03-04T05:25:10;65.90;;;40.95;;
40284;SDS011;25997;50.214;19.354;2023-03-04T05:28:12;58.15;;;38.33;;
40284;SDS011;25997;50.214;19.354;2023-03-04T05:31:16;63.58;;;39.72;;
40284;SDS011;25997;50.214;19.354;2023-03-04T05:34:19;58.35;;;32.58;;
40284;SDS011;25997;50.214;19.354;2023-03-04T05:37:21;66.43;;;37.42;;
40284;SDS011;25997;50.214;19.354;2023-03-04T05:40:24;58.10;;;36.35;;
40284;SDS011;25997;50.214;19.354;2023-03-04T05:43:27;67.88;;;42.65;;
40284;SDS011;25997;50.214;19.354;2023-03-04T05:46:31;68.95;;;39.55;;
40284;SDS011;25997;50.214;19.354;2023-03-04T05:49:33;61.15;;;38.83;;
40284;SDS011;25997;50.214;19.354;2023-03-04T05:52:36;60.42;;;38.53;;
40284;SDS011;25997;50.214;19.354;2023-03-04T05:55:38;64.88;;;41.20;;
40284;SDS011;25997;50.214;19.354;2023-03-04T05:58:41;56.63;;;35.95;;
40284;SDS011;25997;50.214;19.354;2023-03-04T06:01:44;55.35;;;35.90;;
40284;SDS011;25997;50.214;19.354;2023-03-04T06:04:47;57.22;;;39.58;;
40284;SDS011;25997;50.214;19.354;2023-03-04T06:07:49;56.83;;;41.10;;
40284;SDS011;25997;50.214;19.354;2023-03-04T06:10:53;53.40;;;35.58;;
40284;SDS011;25997;50.214;19.354;2023-03-04T06:13:57;55.55;;;37.97;;
40284;SDS011;25997;50.214;19.354;2023-03-04T06:17:01;51.75;;;35.50;;
40284;SDS011;25997;50.214;19.354;2023-03-04T06:20:04;57.47;;;39.17;;
40284;SDS011;25997;50.214;19.354;2023-03-04T06:23:07;59.40;;;37.65;;
40284;SDS011;25997;50.214;19.354;2023-03-04T06:26:09;51.08;;;34.28;;
40284;SDS011;25997;50.214;19.354;2023-03-04T06:29:14;53.00;;;36.08;;
40284;SDS011;25997;50.214;19.354;2023-03-04T06:32:18;63.45;;;42.78;;
40284;SDS011;25997;50.214;19.354;2023-03-04T06:35:21;52.08;;;36.08;;
40284;SDS011;25997;50.214;19.354;2023-03-04T06:38:24;51.13;;;35.90;;
40284;SDS011;25997;50.214;19.354;2023-03-04T06:41:27;53.28;;;33.30;;
40284;SDS011;25997;50.214;19.354;2023-03-04T06:44:29;54.10;;;40.08;;
40284;SDS011;25997;50.214;19.354;2023-03-04T06:47:33;55.80;;;38.63;;
40284;SDS011;25997;50.214;19.354;2023-03-04T06:50:36;50.65;;;32.55;;
40284;SDS011;25997;50.214;19.354;2023-03-04T06:53:40;52.90;;;33.78;;
40284;SDS011;25997;50.214;19.354;2023-03-04T06:56:43;55.63;;;35.45;;
40284;SDS011;25997;50.214;19.354;2023-03-04T06:59:45;60.05;;;41.63;;
40284;SDS011;25997;50.214;19.354;2023-03-04T07:02:49;51.45;;;32.97;;
40284;SDS011;25997;50.214;19.354;2023-03-04T07:05:52;52.20;;;35.72;;
40284;SDS011;25997;50.214;19.354;2023-03-04T07:08:54;49.70;;;35.90;;
40284;SDS011;25997;50.214;19.354;2023-03-04T07:11:58;47.88;;;33.00;;
40284;SDS011;25997;50.214;19.354;2023-03-04T07:15:00;45.40;;;32.80;;
40284;SDS011;25997;50.214;19.354;2023-03-04T07:18:04;51.90;;;32.55;;
40284;SDS011;25997;50.214;19.354;2023-03-04T07:21:07;51.10;;;34.70;;
40284;SDS011;25997;50.214;19.354;2023-03-04T07:24:09;54.88;;;37.42;;
40284;SDS011;25997;50.214;19.354;2023-03-04T07:27:12;52.78;;;35.67;;
40284;SDS011;25997;50.214;19.354;2023-03-04T07:30:15;59.63;;;38.22;;
40284;SDS011;25997;50.214;19.354;2023-03-04T07:33:19;54.70;;;34.70;;
40284;SDS011;25997;50.214;19.354;2023-03-04T07:36:22;47.78;;;34.28;;
40284;SDS011;25997;50.214;19.354;2023-03-04T07:39:25;47.47;;;38.80;;
40284;SDS011;25997;50.214;19.354;2023-03-04T07:42:27;41.38;;;31.85;;
40284;SDS011;25997;50.214;19.354;2023-03-04T07:48:41;50.38;;;34.47;;
40284;SDS011;25997;50.214;19.354;2023-03-04T07:51:43;43.03;;;29.75;;
40284;SDS011;25997;50.214;19.354;2023-03-04T07:54:46;47.83;;;32.65;;
40284;SDS011;25997;50.214;19.354;2023-03-04T07:57:48;42.15;;;32.45;;
40284;SDS011;25997;50.214;19.354;2023-03-04T08:00:51;41.20;;;29.20;;
40284;SDS011;25997;50.214;19.354;2023-03-04T08:03:55;41.95;;;31.70;;
40284;SDS011;25997;50.214;19.354;2023-03-04T08:06:57;46.35;;;33.08;;
40284;SDS011;25997;50.214;19.354;2023-03-04T08:10:00;41.97;;;32.90;;
40284;SDS011;25997;50.214;19.354;2023-03-04T08:13:03;46.20;;;30.88;;
40284;SDS011;25997;50.214;19.354;2023-03-04T08:16:06;46.75;;;32.42;;
40284;SDS011;25997;50.214;19.354;2023-03-04T08:19:10;50.67;;;35.40;;
40284;SDS011;25997;50.214;19.354;2023-03-04T08:22:13;41.00;;;30.67;;
40284;SDS011;25997;50.214;19.354;2023-03-04T08:25:16;44.40;;;30.58;;
40284;SDS011;25997;50.214;19.354;2023-03-04T08:28:18;50.05;;;34.28;;
40284;SDS011;25997;50.214;19.354;2023-03-04T08:31:21;35.03;;;27.08;;
40284;SDS011;25997;50.214;19.354;2023-03-04T08:34:26;37.83;;;25.73;;
40284;SDS011;25997;50.214;19.354;2023-03-04T08:37:29;32.13;;;25.70;;
40284;SDS011;25997;50.214;19.354;2023-03-04T08:40:32;36.33;;;26.35;;
40284;SDS011;25997;50.214;19.354;2023-03-04T08:43:34;37.10;;;27.75;;
40284;SDS011;25997;50.214;19.354;2023-03-04T08:46:37;34.47;;;24.67;;
40284;SDS011;25997;50.214;19.354;2023-03-04T08:49:42;36.30;;;24.42;;
40284;SDS011;25997;50.214;19.354;2023-03-04T08:52:45;33.97;;;26.65;;
40284;SDS011;25997;50.214;19.354;2023-03-04T08:55:48;36.10;;;26.60;;
40284;SDS011;25997;50.214;19.354;2023-03-04T08:58:52;36.88;;;27.88;;
40284;SDS011;25997;50.214;19.354;2023-03-04T09:01:55;36.90;;;28.70;;
40284;SDS011;25997;50.214;19.354;2023-03-04T09:04:59;48.75;;;38.30;;
40284;SDS011;25997;50.214;19.354;2023-03-04T09:08:01;43.10;;;34.42;;
40284;SDS011;25997;50.214;19.354;2023-03-04T09:11:04;41.35;;;30.13;;
40284;SDS011;25997;50.214;19.354;2023-03-04T09:14:07;39.30;;;29.38;;
40284;SDS011;25997;50.214;19.354;2023-03-04T09:17:10;40.10;;;31.05;;
40284;SDS011;25997;50.214;19.354;2023-03-04T09:20:13;37.58;;;28.27;;
40284;SDS011;25997;50.214;19.354;2023-03-04T09:23:16;36.88;;;29.30;;
40284;SDS011;25997;50.214;19.354;2023-03-04T09:26:20;37.70;;;28.98;;
40284;SDS011;25997;50.214;19.354;2023-03-04T09:29:24;37.75;;;30.15;;
40284;SDS011;25997;50.214;19.354;2023-03-04T09:32:26;37.05;;;29.92;;
40284;SDS011;25997;50.214;19.354;2023-03-04T09:35:30;40.00;;;29.63;;
40284;SDS011;25997;50.214;19.354;2023-03-04T09:38:33;43.03;;;33.67;;
40284;SDS011;25997;50.214;19.354;2023-03-04T09:41:36;42.10;;;34.20;;
40284;SDS011;25997;50.214;19.354;2023-03-04T09:44:41;38.63;;;30.42;;
40284;SDS011;25997;50.214;19.354;2023-03-04T09:47:47;41.47;;;34.22;;
40284;SDS011;25997;50.214;19.354;2023-03-04T09:50:58;44.03;;;32.63;;
40284;SDS011;25997;50.214;19.354;2023-03-04T09:54:14;42.30;;;34.90;;
40284;SDS011;25997;50.214;19.354;2023-03-04T09:57:26;41.40;;;35.25;;
40284;SDS011;25997;50.214;19.354;2023-03-04T10:00:34;42.53;;;36.28;;
40284;SDS011;25997;50.214;19.354;2023-03-04T10:03:41;49.63;;;36.65;;
40284;SDS011;25997;50.214;19.354;2023-03-04T10:06:49;41.50;;;34.03;;
40284;SDS011;25997;50.214;19.354;2023-03-04T10:09:54;41.40;;;34.67;;
40284;SDS011;25997;50.214;19.354;2023-03-04T10:13:02;40.00;;;33.05;;
40284;SDS011;25997;50.214;19.354;2023-03-04T10:16:07;44.55;;;37.13;;
40284;SDS011;25997;50.214;19.354;2023-03-04T10:19:19;46.80;;;40.05;;
40284;SDS011;25997;50.214;19.354;2023-03-04T10:22:33;45.25;;;37.05;;
40284;SDS011;25997;50.214;19.354;2023-03-04T10:25:38;48.08;;;37.33;;
40284;SDS011;25997;50.214;19.354;2023-03-04T10:28:45;56.67;;;43.17;;
40284;SDS011;25997;50.214;19.354;2023-03-04T10:31:48;55.38;;;43.67;;
40284;SDS011;25997;50.214;19.354;2023-03-04T10:34:55;35.53;;;29.10;;
40284;SDS011;25997;50.214;19.354;2023-03-04T10:38:00;66.03;;;48.88;;
40284;SDS011;25997;50.214;19.354;2023-03-04T10:41:09;44.47;;;35.85;;
40284;SDS011;25997;50.214;19.354;2023-03-04T10:44:14;34.78;;;25.95;;
40284;SDS011;25997;50.214;19.354;2023-03-04T10:47:18;51.22;;;35.65;;
40284;SDS011;25997;50.214;19.354;2023-03-04T10:50:21;33.30;;;28.00;;
40284;SDS011;25997;50.214;19.354;2023-03-04T10:53:30;48.17;;;35.17;;
40284;SDS011;25997;50.214;19.354;2023-03-04T10:56:38;32.53;;;26.17;;
40284;SDS011;25997;50.214;19.354;2023-03-04T10:59:46;48.92;;;39.70;;
40284;SDS011;25997;50.214;19.354;2023-03-04T11:02:51;39.25;;;31.48;;
40284;SDS011;25997;50.214;19.354;2023-03-04T11:06:03;39.90;;;31.13;;
40284;SDS011;25997;50.214;19.354;2023-03-04T11:09:16;33.97;;;28.58;;
40284;SDS011;25997;50.214;19.354;2023-03-04T11:12:30;37.67;;;33.33;;
40284;SDS011;25997;50.214;19.354;2023-03-04T11:15:46;41.35;;;33.25;;
40284;SDS011;25997;50.214;19.354;2023-03-04T11:18:52;51.60;;;43.22;;
40284;SDS011;25997;50.214;19.354;2023-03-04T11:21:56;41.97;;;30.83;;
40284;SDS011;25997;50.214;19.354;2023-03-04T11:25:04;45.25;;;37.42;;
40284;SDS011;25997;50.214;19.354;2023-03-04T11:28:11;52.72;;;42.72;;
40284;SDS011;25997;50.214;19.354;2023-03-04T11:31:21;56.20;;;39.85;;
40284;SDS011;25997;50.214;19.354;2023-03-04T11:34:31;59.35;;;46.35;;
40284;SDS011;25997;50.214;19.354;2023-03-04T11:37:39;61.15;;;47.20;;
40284;SDS011;25997;50.214;19.354;2023-03-04T11:40:51;66.25;;;52.50;;
40284;SDS011;25997;50.214;19.354;2023-03-04T11:43:58;74.38;;;53.38;;
40284;SDS011;25997;50.214;19.354;2023-03-04T11:47:06;69.18;;;51.40;;
40284;SDS011;25997;50.214;19.354;2023-03-04T11:50:26;66.22;;;48.80;;
40284;SDS011;25997;50.214;19.354;2023-03-04T11:53:32;57.57;;;43.53;;
40284;SDS011;25997;50.214;19.354;2023-03-04T11:56:43;62.85;;;43.55;;
40284;SDS011;25997;50.214;19.354;2023-03-04T11:59:52;58.67;;;44.08;;
40284;SDS011;25997;50.214;19.354;2023-03-04T12:03:26;57.45;;;43.08;;
40284;SDS011;25997;50.214;19.354;2023-03-04T12:06:59;57.95;;;41.72;;
40284;SDS011;25997;50.214;19.354;2023-03-04T12:10:19;56.72;;;41.60;;
40284;SDS011;25997;50.214;19.354;2023-03-04T12:13:32;57.60;;;44.45;;
40284;SDS011;25997;50.214;19.354;2023-03-04T12:16:49;57.08;;;45.55;;
40284;SDS011;25997;50.214;19.354;2023-03-04T12:20:14;54.17;;;40.38;;
40284;SDS011;25997;50.214;19.354;2023-03-04T12:27:10;55.40;;;39.60;;
40284;SDS011;25997;50.214;19.354;2023-03-04T12:30:27;55.55;;;39.60;;
40284;SDS011;25997;50.214;19.354;2023-03-04T12:33:52;47.33;;;36.47;;
40284;SDS011;25997;50.214;19.354;2023-03-04T12:40:42;51.70;;;38.50;;
40284;SDS011;25997;50.214;19.354;2023-03-04T12:43:53;57.58;;;43.22;;
40284;SDS011;25997;50.214;19.354;2023-03-04T12:50:35;60.47;;;41.15;;
40284;SDS011;25997;50.214;19.354;2023-03-04T12:53:46;53.85;;;37.33;;
40284;SDS011;25997;50.214;19.354;2023-03-04T12:56:56;52.88;;;36.72;;
40284;SDS011;25997;50.214;19.354;2023-03-04T13:00:05;65.30;;;45.30;;
40284;SDS011;25997;50.214;19.354;2023-03-04T13:03:22;51.90;;;36.55;;
40284;SDS011;25997;50.214;19.354;2023-03-04T13:06:33;47.50;;;35.45;;
40284;SDS011;25997;50.214;19.354;2023-03-04T13:09:42;51.88;;;39.80;;
40284;SDS011;25997;50.214;19.354;2023-03-04T13:12:51;48.53;;;36.35;;
40284;SDS011;25997;50.214;19.354;2023-03-04T13:16:00;50.47;;;34.00;;
40284;SDS011;25997;50.214;19.354;2023-03-04T13:19:12;43.50;;;33.97;;
40284;SDS011;25997;50.214;19.354;2023-03-04T13:22:55;48.85;;;34.28;;
40284;SDS011;25997;50.214;19.354;2023-03-04T13:26:18;45.30;;;33.60;;
40284;SDS011;25997;50.214;19.354;2023-03-04T13:29:31;42.45;;;30.50;;
40284;SDS011;25997;50.214;19.354;2023-03-04T13:32:37;50.67;;;30.10;;
40284;SDS011;25997;50.214;19.354;2023-03-04T13:35:48;44.55;;;31.17;;
40284;SDS011;25997;50.214;19.354;2023-03-04T13:38:59;42.67;;;31.90;;
40284;SDS011;25997;50.214;19.354;2023-03-04T13:42:03;40.95;;;28.80;;
40284;SDS011;25997;50.214;19.354;2023-03-04T13:45:30;41.65;;;30.10;;
40284;SDS011;25997;50.214;19.354;2023-03-04T13:48:34;40.13;;;29.42;;
40284;SDS011;25997;50.214;19.354;2023-03-04T13:51:40;41.85;;;30.52;;
40284;SDS011;25997;50.214;19.354;2023-03-04T13:54:44;41.92;;;30.35;;
40284;SDS011;25997;50.214;19.354;2023-03-04T13:57:47;38.85;;;28.33;;
40284;SDS011;25997;50.214;19.354;2023-03-04T14:00:51;45.85;;;32.78;;
40284;SDS011;25997;50.214;19.354;2023-03-04T14:03:55;37.22;;;28.45;;
40284;SDS011;25997;50.214;19.354;2023-03-04T14:07:00;39.08;;;30.10;;
40284;SDS011;25997;50.214;19.354;2023-03-04T14:10:06;40.58;;;30.77;;
40284;SDS011;25997;50.214;19.354;2023-03-04T14:13:22;36.72;;;26.58;;
40284;SDS011;25997;50.214;19.354;2023-03-04T14:16:26;42.58;;;29.20;;
40284;SDS011;25997;50.214;19.354;2023-03-04T14:19:30;40.92;;;30.05;;
40284;SDS011;25997;50.214;19.354;2023-03-04T14:22:38;37.97;;;27.60;;
40284;SDS011;25997;50.214;19.354;2023-03-04T14:25:42;41.17;;;29.15;;
40284;SDS011;25997;50.214;19.354;2023-03-04T14:28:45;41.13;;;26.98;;
40284;SDS011;25997;50.214;19.354;2023-03-04T14:31:49;37.08;;;28.33;;
40284;SDS011;25997;50.214;19.354;2023-03-04T14:34:53;40.28;;;29.77;;
40284;SDS011;25997;50.214;19.354;2023-03-04T14:38:01;41.83;;;32.85;;
40284;SDS011;25997;50.214;19.354;2023-03-04T14:41:06;39.42;;;29.73;;
40284;SDS011;25997;50.214;19.354;2023-03-04T14:44:13;41.13;;;29.60;;
40284;SDS011;25997;50.214;19.354;2023-03-04T14:47:29;42.58;;;28.85;;
40284;SDS011;25997;50.214;19.354;2023-03-04T14:50:35;40.17;;;29.17;;
40284;SDS011;25997;50.214;19.354;2023-03-04T14:53:51;40.90;;;30.88;;
40284;SDS011;25997;50.214;19.354;2023-03-04T14:56:55;42.10;;;33.10;;
40284;SDS011;25997;50.214;19.354;2023-03-04T15:00:13;47.47;;;33.17;;
40284;SDS011;25997;50.214;19.354;2023-03-04T15:03:18;52.03;;;35.17;;
40284;SDS011;25997;50.214;19.354;2023-03-04T15:06:23;49.55;;;37.55;;
40284;SDS011;25997;50.214;19.354;2023-03-04T15:09:32;41.13;;;33.83;;
40284;SDS011;25997;50.214;19.354;2023-03-04T15:12:36;40.65;;;31.35;;
40284;SDS011;25997;50.214;19.354;2023-03-04T15:15:40;37.92;;;31.60;;
40284;SDS011;25997;50.214;19.354;2023-03-04T15:18:57;36.42;;;29.52;;
40284;SDS011;25997;50.214;19.354;2023-03-04T15:22:03;39.28;;;29.63;;
40284;SDS011;25997;50.214;19.354;2023-03-04T15:25:10;45.08;;;31.95;;
40284;SDS011;25997;50.214;19.354;2023-03-04T15:28:15;40.15;;;32.03;;
40284;SDS011;25997;50.214;19.354;2023-03-04T15:31:20;38.47;;;29.25;;
40284;SDS011;25997;50.214;19.354;2023-03-04T15:34:26;38.92;;;27.90;;
40284;SDS011;25997;50.214;19.354;2023-03-04T15:37:28;36.42;;;30.08;;
40284;SDS011;25997;50.214;19.354;2023-03-04T15:40:33;37.17;;;28.02;;
40284;SDS011;25997;50.214;19.354;2023-03-04T15:43:38;36.50;;;28.55;;
40284;SDS011;25997;50.214;19.354;2023-03-04T15:46:41;35.38;;;29.65;;
40284;SDS011;25997;50.214;19.354;2023-03-04T15:49:43;44.50;;;31.67;;
40284;SDS011;25997;50.214;19.354;2023-03-04T15:52:47;35.88;;;27.73;;
40284;SDS011;25997;50.214;19.354;2023-03-04T15:55:52;34.33;;;26.23;;
40284;SDS011;25997;50.214;19.354;2023-03-04T15:58:56;36.65;;;29.85;;
40284;SDS011;25997;50.214;19.354;2023-03-04T16:02:02;38.97;;;26.75;;
40284;SDS011;25997;50.214;19.354;2023-03-04T16:05:10;33.30;;;26.42;;
40284;SDS011;25997;50.214;19.354;2023-03-04T16:08:16;37.33;;;27.27;;
40284;SDS011;25997;50.214;19.354;2023-03-04T16:11:22;33.88;;;26.13;;
40284;SDS011;25997;50.214;19.354;2023-03-04T16:14:26;34.80;;;25.65;;
40284;SDS011;25997;50.214;19.354;2023-03-04T16:17:29;39.33;;;27.38;;
40284;SDS011;25997;50.214;19.354;2023-03-04T16:20:31;38.65;;;29.15;;
40284;SDS011;25997;50.214;19.354;2023-03-04T16:23:37;39.08;;;27.92;;
40284;SDS011;25997;50.214;19.354;2023-03-04T16:26:44;37.42;;;28.52;;
40284;SDS011;25997;50.214;19.354;2023-03-04T16:29:47;39.42;;;28.95;;
40284;SDS011;25997;50.214;19.354;2023-03-04T16:32:50;41.60;;;30.58;;
40284;SDS011;25997;50.214;19.354;2023-03-04T16:35:53;49.42;;;37.67;;
40284;SDS011;25997;50.214;19.354;2023-03-04T16:38:56;42.90;;;32.88;;
40284;SDS011;25997;50.214;19.354;2023-03-04T16:42:07;43.50;;;33.72;;
40284;SDS011;25997;50.214;19.354;2023-03-04T16:45:15;42.97;;;32.00;;
40284;SDS011;25997;50.214;19.354;2023-03-04T16:48:18;49.58;;;34.25;;
40284;SDS011;25997;50.214;19.354;2023-03-04T16:51:21;51.30;;;35.78;;
40284;SDS011;25997;50.214;19.354;2023-03-04T16:54:26;42.70;;;31.85;;
40284;SDS011;25997;50.214;19.354;2023-03-04T16:57:32;49.97;;;33.78;;
40284;SDS011;25997;50.214;19.354;2023-03-04T17:00:35;41.33;;;30.00;;
40284;SDS011;25997;50.214;19.354;2023-03-04T17:03:37;49.85;;;34.95;;
40284;SDS011;25997;50.214;19.354;2023-03-04T17:06:40;43.28;;;34.17;;
40284;SDS011;25997;50.214;19.354;2023-03-04T17:09:42;43.67;;;32.50;;
40284;SDS011;25997;50.214;19.354;2023-03-04T17:12:47;42.35;;;33.10;;
40284;SDS011;25997;50.214;19.354;2023-03-04T17:15:50;41.72;;;32.15;;
40284;SDS011;25997;50.214;19.354;2023-03-04T17:18:52;43.88;;;31.90;;
40284;SDS011;25997;50.214;19.354;2023-03-04T17:21:56;45.30;;;35.33;;
40284;SDS011;25997;50.214;19.354;2023-03-04T17:25:00;43.35;;;32.58;;
40284;SDS011;25997;50.214;19.354;2023-03-04T17:28:05;44.92;;;32.85;;
40284;SDS011;25997;50.214;19.354;2023-03-04T17:31:07;44.10;;;32.83;;
40284;SDS011;25997;50.214;19.354;2023-03-04T17:34:10;40.85;;;31.92;;
40284;SDS011;25997;50.214;19.354;2023-03-04T17:37:13;50.70;;;39.15;;
40284;SDS011;25997;50.214;19.354;2023-03-04T17:40:16;45.40;;;35.47;;
40284;SDS011;25997;50.214;19.354;2023-03-04T17:43:20;51.35;;;40.53;;
40284;SDS011;25997;50.214;19.354;2023-03-04T17:46:23;52.42;;;36.63;;
40284;SDS011;25997;50.214;19.354;2023-03-04T17:49:27;49.45;;;34.60;;
40284;SDS011;25997;50.214;19.354;2023-03-04T17:52:30;45.03;;;35.40;;
40284;SDS011;25997;50.214;19.354;2023-03-04T17:55:32;42.20;;;34.30;;
40284;SDS011;25997;50.214;19.354;2023-03-04T17:58:36;42.78;;;33.50;;
40284;SDS011;25997;50.214;19.354;2023-03-04T18:01:39;44.38;;;36.95;;